Terminal Aerodrome Forecast
Issued by NWS Twin Cities, MN

Home | Current Version | Previous Version | Graphics & Text | Print | Product List | Glossary On
Versions: 1 2 3 4 5 6 7 8 9 10 11 12 13 14 15 16 17 18 19
000
FTUS43 KMPX 242320
TAFEAU
TAF
KEAU 242320Z 2500/2524 10006KT 3SM -RA BR BKN008 OVC015
     FM250400 08004KT 3SM -DZ BR OVC008
     FM250600 VRB03KT 2SM BR VCSH OVC005
     FM251400 24005KT 3SM -SHRA BR OVC007
     FM251800 25009KT P6SM SCT010 OVC018=

USA.gov is the U.S. government's official web portal to all federal, state and local government web resources and services.